createdAt,value
2023-02-11T00:00:46.846Z,78.44
2023-02-11T00:04:50.957Z,78.30
2023-02-11T00:08:53.778Z,78.07
2023-02-11T00:12:57.334Z,77.88
2023-02-11T00:17:00.166Z,78.79
2023-02-11T00:21:08.856Z,79.24
2023-02-11T00:25:11.526Z,78.53
2023-02-11T00:29:14.201Z,78.44
2023-02-11T00:33:17.015Z,78.73
2023-02-11T00:37:21.306Z,77.96
2023-02-11T00:41:24.798Z,77.90
2023-02-11T00:45:28.783Z,78.27
2023-02-11T00:49:31.429Z,78.61
2023-02-11T00:53:36.524Z,79.32
2023-02-11T00:57:39.135Z,79.10
2023-02-11T01:01:41.878Z,79.25
2023-02-11T01:05:44.488Z,79.18
2023-02-11T01:09:48.432Z,78.95
2023-02-11T01:13:51.373Z,79.01
2023-02-11T01:17:54.240Z,79.23
2023-02-11T01:21:56.841Z,79.01
2023-02-11T01:30:04.139Z,78.76
2023-02-11T01:34:06.812Z,79.14
2023-02-11T01:38:15.177Z,79.32
2023-02-11T01:42:22.329Z,79.25
2023-02-11T01:46:31.286Z,78.69
2023-02-11T01:50:34.542Z,79.32
2023-02-11T01:55:13.262Z,79.46
2023-02-11T01:59:22.545Z,79.33
2023-02-11T02:03:25.923Z,79.71
2023-02-11T02:07:37.310Z,79.11
2023-02-11T02:11:39.930Z,80.42
2023-02-11T02:15:50.517Z,80.10
2023-02-11T02:20:14.677Z,81.05
2023-02-11T02:24:39.886Z,80.38
2023-02-11T02:29:11.040Z,81.01
2023-02-11T02:33:25.323Z,80.99
2023-02-11T02:37:35.122Z,81.29
2023-02-11T02:41:38.880Z,81.78
2023-02-11T02:45:41.820Z,81.33
2023-02-11T02:49:45.849Z,81.66
2023-02-11T02:53:59.251Z,81.78
2023-02-11T02:58:14.043Z,81.94
2023-02-11T03:02:25.872Z,81.46
2023-02-11T03:06:33.981Z,81.70
2023-02-11T03:10:40.795Z,81.14
2023-02-11T03:14:43.496Z,81.90
2023-02-11T03:18:51.290Z,81.77
2023-02-11T03:22:59.153Z,82.43
2023-02-11T03:27:07.856Z,81.37
2023-02-11T03:31:15.901Z,81.71
2023-02-11T03:35:22.828Z,81.88
2023-02-11T03:39:32.630Z,82.81
2023-02-11T03:43:38.951Z,83.18
2023-02-11T03:47:47.286Z,83.51
2023-02-11T03:51:53.337Z,83.90
2023-02-11T03:56:01.005Z,83.55
2023-02-11T04:00:03.709Z,83.29
2023-02-11T04:04:07.088Z,82.98
2023-02-11T04:08:10.109Z,83.67
2023-02-11T04:12:14.049Z,83.42
2023-02-11T04:16:16.723Z,83.80
2023-02-11T04:20:19.858Z,84.22
2023-02-11T04:24:22.529Z,84.61
2023-02-11T04:28:29.384Z,83.94
2023-02-11T04:32:32.059Z,84.06
2023-02-11T04:36:34.668Z,84.40
2023-02-11T04:40:37.255Z,84.33
2023-02-11T04:44:41.244Z,83.95
2023-02-11T04:48:43.851Z,84.66
2023-02-11T04:52:46.408Z,84.26
2023-02-11T04:56:49.696Z,83.74
2023-02-11T05:00:53.681Z,83.65
2023-02-11T05:04:56.324Z,83.26
2023-02-11T05:08:58.898Z,83.49
2023-02-11T05:13:01.494Z,83.28
2023-02-11T05:17:05.477Z,83.60
2023-02-11T05:21:09.120Z,83.31
2023-02-11T05:25:11.781Z,83.36
2023-02-11T05:29:14.369Z,83.69
2023-02-11T05:33:18.891Z,83.47
2023-02-11T05:37:21.535Z,84.00
2023-02-11T05:41:24.173Z,84.46
2023-02-11T05:45:26.758Z,83.59
2023-02-11T05:49:30.706Z,83.22
2023-02-11T05:53:33.520Z,83.14
2023-02-11T05:57:36.099Z,83.08
2023-02-11T06:01:38.711Z,83.61
2023-02-11T06:05:43.792Z,82.90
2023-02-11T06:09:46.425Z,82.79
2023-02-11T06:13:49.062Z,83.04
2023-02-11T06:17:51.655Z,90.48
2023-02-11T06:21:56.863Z,86.36
2023-02-11T06:26:03.336Z,86.64
2023-02-11T06:30:08.004Z,87.29
2023-02-11T06:34:11.104Z,92.33
2023-02-11T06:38:15.581Z,92.96
2023-02-11T06:42:18.209Z,76.72
2023-02-11T06:46:21.050Z,80.25
2023-02-11T06:50:23.762Z,82.04
2023-02-11T06:54:27.704Z,82.31
2023-02-11T06:58:30.355Z,81.86
2023-02-11T07:02:32.975Z,81.84
2023-02-11T07:06:37.568Z,82.49
2023-02-11T07:10:41.734Z,81.91
2023-02-11T07:14:44.345Z,82.55
2023-02-11T07:18:47.860Z,82.58
2023-02-11T07:22:50.503Z,81.86
2023-02-11T07:26:55.704Z,81.89
2023-02-11T07:30:58.485Z,81.51
2023-02-11T07:35:01.286Z,81.42
2023-02-11T07:39:04.012Z,81.26
2023-02-11T07:43:08.004Z,81.78
2023-02-11T07:47:10.606Z,81.20
2023-02-11T07:51:14.586Z,80.96
2023-02-11T07:55:17.319Z,81.79
2023-02-11T07:59:21.536Z,81.33
2023-02-11T08:03:24.171Z,81.22
2023-02-11T08:07:29.249Z,80.71
2023-02-11T08:11:31.876Z,79.85
2023-02-11T08:15:35.837Z,79.83
2023-02-11T08:19:39.771Z,79.75
2023-02-11T08:23:43.756Z,78.83
2023-02-11T08:27:46.388Z,79.04
2023-02-11T08:31:50.489Z,78.88
2023-02-11T08:35:53.106Z,78.27
2023-02-11T08:39:55.707Z,78.06
2023-02-11T08:43:59.228Z,77.20
2023-02-11T08:48:03.196Z,77.37
2023-02-11T08:52:06.121Z,77.32
2023-02-11T08:56:13.345Z,76.17
2023-02-11T09:00:17.491Z,74.51
2023-02-11T09:04:21.466Z,73.44
2023-02-11T09:08:24.091Z,72.00
2023-02-11T09:12:26.676Z,70.88
2023-02-11T09:16:32.379Z,70.27
2023-02-11T09:20:36.407Z,69.51
2023-02-11T09:24:39.055Z,69.44
2023-02-11T09:28:41.725Z,69.46
2023-02-11T09:32:44.387Z,68.80
2023-02-11T09:36:48.389Z,68.77
2023-02-11T09:40:51.337Z,68.32
2023-02-11T09:44:54.388Z,72.05
2023-02-11T09:48:57.488Z,69.84
2023-02-11T09:53:05.030Z,69.91
2023-02-11T09:57:22.928Z,70.10
2023-02-11T10:01:39.676Z,71.08
2023-02-11T10:06:07.340Z,70.90
2023-02-11T10:10:21.554Z,71.08
2023-02-11T10:14:41.017Z,71.26
2023-02-11T10:19:05.222Z,71.48
2023-02-11T10:23:14.632Z,70.62
2023-02-11T10:27:21.878Z,71.04
2023-02-11T10:31:28.833Z,70.76
2023-02-11T10:35:32.514Z,70.56
2023-02-11T10:39:35.122Z,70.93
2023-02-11T10:43:39.416Z,70.20
2023-02-11T10:47:42.661Z,70.44
2023-02-11T10:51:45.277Z,69.96
2023-02-11T10:55:54.121Z,69.81
2023-02-11T11:00:01.472Z,69.64
2023-02-11T11:04:04.151Z,69.54
2023-02-11T11:08:09.650Z,69.68
2023-02-11T11:12:26.122Z,69.85
2023-02-11T11:16:32.444Z,69.62
2023-02-11T11:20:36.311Z,69.80
2023-02-11T11:24:46.559Z,69.59
2023-02-11T11:28:56.890Z,69.70
2023-02-11T11:33:02.167Z,69.61
2023-02-11T11:37:12.444Z,69.74
2023-02-11T11:41:24.310Z,69.65
2023-02-11T11:45:28.267Z,69.18
2023-02-11T11:49:37.459Z,68.89
2023-02-11T11:53:46.491Z,68.62
2023-02-11T11:57:49.935Z,69.16
2023-02-11T12:02:13.207Z,72.86
2023-02-11T12:06:27.632Z,68.78
2023-02-11T12:10:48.933Z,68.29
2023-02-11T12:15:04.156Z,66.12
2023-02-11T12:19:47.323Z,66.97
2023-02-11T12:24:07.281Z,67.18
2023-02-11T12:28:23.429Z,66.56
2023-02-11T12:32:32.001Z,66.97
2023-02-11T12:36:46.885Z,66.67
2023-02-11T12:40:59.924Z,66.76
2023-02-11T12:45:10.003Z,66.26
2023-02-11T12:49:38.599Z,64.73
2023-02-11T12:53:53.833Z,64.78
2023-02-11T12:57:59.950Z,65.10
2023-02-11T13:02:07.778Z,65.48
2023-02-11T13:06:15.022Z,65.19
2023-02-11T13:10:27.261Z,66.66
2023-02-11T13:14:35.544Z,66.77
2023-02-11T13:18:49.430Z,66.02
2023-02-11T13:22:59.777Z,66.37
2023-02-11T13:27:11.669Z,66.20
2023-02-11T13:31:16.735Z,65.91
2023-02-11T13:35:29.894Z,66.42
2023-02-11T13:39:32.382Z,65.80
2023-02-11T13:43:37.778Z,66.13
2023-02-11T13:47:42.544Z,66.30
2023-02-11T13:51:45.405Z,66.18
2023-02-11T13:55:50.819Z,66.33
2023-02-11T13:59:54.940Z,66.24
2023-02-11T14:04:40.395Z,66.20
2023-02-11T14:09:03.307Z,65.94
2023-02-11T14:13:07.110Z,65.99
2023-02-11T14:17:21.246Z,65.19
2023-02-11T14:21:34.335Z,64.92
2023-02-11T14:25:39.497Z,64.33
2023-02-11T14:29:51.050Z,64.05
2023-02-11T14:34:06.151Z,64.37
2023-02-11T14:38:19.618Z,64.54
2023-02-11T14:42:26.935Z,64.70
2023-02-11T14:46:32.823Z,64.99
2023-02-11T14:50:41.211Z,64.46
2023-02-11T14:54:46.125Z,64.39
2023-02-11T14:58:51.757Z,64.90
2023-02-11T15:02:54.632Z,64.92
2023-02-11T15:06:59.356Z,65.30
2023-02-11T15:11:08.715Z,65.27
2023-02-11T15:15:14.432Z,65.42
2023-02-11T15:19:24.319Z,65.87
2023-02-11T15:23:29.685Z,65.92
2023-02-11T15:27:41.329Z,66.21
2023-02-11T15:31:44.232Z,66.24
2023-02-11T15:35:46.989Z,66.24
2023-02-11T15:39:50.080Z,66.84
2023-02-11T15:43:54.116Z,67.08
2023-02-11T15:48:00.812Z,67.17
2023-02-11T15:52:03.882Z,67.67
2023-02-11T15:56:13.120Z,67.42
2023-02-11T16:00:21.157Z,67.77
2023-02-11T16:04:26.272Z,67.93
2023-02-11T16:08:32.754Z,67.74
2023-02-11T16:12:35.379Z,67.82
2023-02-11T16:16:39.554Z,67.84
2023-02-11T16:20:42.361Z,68.38
2023-02-11T16:24:48.512Z,68.48
2023-02-11T16:28:51.879Z,68.70
2023-02-11T16:32:55.981Z,79.43
2023-02-11T16:36:58.622Z,81.62
2023-02-11T16:41:01.230Z,72.02
2023-02-11T16:45:04.010Z,68.11
2023-02-11T16:49:11.770Z,75.89
2023-02-11T16:53:22.122Z,70.58
2023-02-11T16:57:28.803Z,70.09
2023-02-11T17:01:33.396Z,70.04
2023-02-11T17:05:53.071Z,70.51
2023-02-11T17:09:57.919Z,71.06
2023-02-11T17:14:00.536Z,70.88
2023-02-11T17:18:03.966Z,71.49
2023-02-11T17:22:07.992Z,72.00
2023-02-11T17:26:10.616Z,72.38
2023-02-11T17:30:15.490Z,72.83
2023-02-11T17:34:18.518Z,73.45
2023-02-11T17:38:22.553Z,73.88
2023-02-11T17:42:25.199Z,73.95
2023-02-11T17:46:29.182Z,76.79
2023-02-11T17:50:31.848Z,77.19
2023-02-11T17:54:35.865Z,75.62
2023-02-11T17:58:38.540Z,73.29
2023-02-11T18:02:41.279Z,73.09
2023-02-11T18:06:44.637Z,73.16
2023-02-11T18:10:48.765Z,73.65
2023-02-11T18:14:51.895Z,74.20
2023-02-11T18:18:54.561Z,74.79
2023-02-11T18:22:57.214Z,75.07
2023-02-11T18:27:01.190Z,74.98
2023-02-11T18:31:05.851Z,75.65
2023-02-11T18:35:14.872Z,75.79
2023-02-11T18:39:18.665Z,75.83
2023-02-11T18:43:22.771Z,75.82
2023-02-11T18:47:25.575Z,76.10
2023-02-11T18:51:28.417Z,76.15
2023-02-11T18:55:37.512Z,76.40
2023-02-11T18:59:41.478Z,76.41
2023-02-11T19:03:48.306Z,76.10
2023-02-11T19:07:51.462Z,76.06
2023-02-11T19:11:57.995Z,75.81
2023-02-11T19:16:07.749Z,75.80
2023-02-11T19:20:17.081Z,75.70
2023-02-11T19:24:20.338Z,75.76
2023-02-11T19:28:22.993Z,75.34
2023-02-11T19:32:34.389Z,75.04
2023-02-11T19:36:40.674Z,74.85
2023-02-11T19:40:43.381Z,75.32
2023-02-11T19:44:51.897Z,75.39
2023-02-11T19:49:04.213Z,75.12
2023-02-11T19:53:09.558Z,75.32
2023-02-11T19:57:12.177Z,75.31
2023-02-11T20:01:17.533Z,75.44
2023-02-11T20:05:30.714Z,75.57
2023-02-11T20:09:33.530Z,75.72
2023-02-11T20:13:37.739Z,75.73
2023-02-11T20:17:40.368Z,75.87
2023-02-11T20:21:47.134Z,76.27
2023-02-11T20:25:50.615Z,76.32
2023-02-11T20:29:53.699Z,76.65
2023-02-11T20:33:57.352Z,76.81
2023-02-11T20:38:10.277Z,76.99
2023-02-11T20:42:14.304Z,77.26
2023-02-11T20:46:33.879Z,77.66
2023-02-11T20:50:36.636Z,77.69
2023-02-11T20:54:41.217Z,77.65
2023-02-11T20:58:50.116Z,77.55
2023-02-11T21:02:52.883Z,77.46
2023-02-11T21:06:59.960Z,77.47
2023-02-11T21:11:04.129Z,77.39
2023-02-11T21:15:09.748Z,77.69
2023-02-11T21:19:13.032Z,78.13
2023-02-11T21:23:15.814Z,78.22
2023-02-11T21:27:20.113Z,78.20
2023-02-11T21:31:24.670Z,78.21
2023-02-11T21:35:27.781Z,78.23
2023-02-11T21:39:30.550Z,78.28
2023-02-11T21:43:34.873Z,78.64
2023-02-11T21:47:37.527Z,78.66
2023-02-11T21:51:40.582Z,78.85
2023-02-11T21:55:43.644Z,79.08
2023-02-11T21:59:47.620Z,78.94
2023-02-11T22:03:50.530Z,79.21
2023-02-11T22:07:53.385Z,79.20
2023-02-11T22:11:56.184Z,79.58
2023-02-11T22:16:01.960Z,80.00
2023-02-11T22:20:05.345Z,80.92
2023-02-11T22:24:08.355Z,80.63
2023-02-11T22:28:11.009Z,79.79
2023-02-11T22:32:17.655Z,79.69
2023-02-11T22:36:20.990Z,79.97
2023-02-11T22:40:23.710Z,80.06
2023-02-11T22:44:27.002Z,79.75
2023-02-11T22:48:30.999Z,79.52
2023-02-11T22:52:36.034Z,80.84
2023-02-11T22:56:38.691Z,80.45
2023-02-11T23:00:43.111Z,80.67
2023-02-11T23:04:49.660Z,80.78
2023-02-11T23:08:52.694Z,80.38
2023-02-11T23:12:55.322Z,81.04
2023-02-11T23:16:57.998Z,81.20
2023-02-11T23:21:06.644Z,81.09
2023-02-11T23:25:09.642Z,80.95
2023-02-11T23:29:12.566Z,80.73
2023-02-11T23:33:15.256Z,80.80
2023-02-11T23:37:19.466Z,80.82
2023-02-11T23:41:22.734Z,80.67
2023-02-11T23:45:25.375Z,80.90
2023-02-11T23:49:27.992Z,81.08
2023-02-11T23:53:31.977Z,81.15
2023-02-11T23:57:35.564Z,81.31
